Time;durP1;ratioP1;P1;durP2;ratioP2;P2;SDS_P1;SDS_P2;PMS_P1;PMS_P2;Temp;Humidity;BMP_temperature;BMP_pressure;BME280_temperature;BME280_humidity;BME280_pressure;Samples;Min_cycle;Max_cycle;Signal;HPM_P1;HPM_P2
2023/04/06 00:01:46;;;;;;;;;16.00;14.00;;;;;;;;6336226;22;45343;-76
2023/04/06 00:04:12;;;;;;;;;15.33;13.00;;;;;;;;6336047;22;45358;-76
2023/04/06 00:06:37;;;;;;;;;20.33;18.00;;;;;;;;6335602;22;45211;-76
2023/04/06 00:09:02;;;;;;;;;18.00;14.00;;;;;;;;6336237;22;45321;-77
2023/04/06 00:11:27;;;;;;;;;15.00;14.00;;;;;;;;6336407;22;45498;-77
2023/04/06 00:13:52;;;;;;;;;15.00;15.00;;;;;;;;6335813;22;46413;-77
2023/04/06 00:16:18;;;;;;;;;19.33;17.00;;;;;;;;6336055;22;45377;-77
2023/04/06 00:18:43;;;;;;;;;20.33;13.33;;;;;;;;6336087;22;45264;-76
2023/04/06 00:21:11;;;;;;;;;19.75;15.25;;;;;;;;6335818;22;45280;-77
2023/04/06 00:23:36;;;;;;;;;13.00;11.50;;;;;;;;6335863;22;46473;-77
2023/04/06 00:26:01;;;;;;;;;13.75;10.00;;;;;;;;6335457;22;45318;-76
2023/04/06 00:28:26;;;;;;;;;18.67;12.67;;;;;;;;6335785;22;45198;-75
2023/04/06 00:30:55;;;;;;;;;18.67;15.33;;;;;;;;6335833;22;45359;-76
2023/04/06 00:33:21;;;;;;;;;17.25;13.00;;;;;;;;6335650;22;45783;-76
2023/04/06 00:35:46;;;;;;;;;17.75;13.50;;;;;;;;6335597;22;45312;-76
2023/04/06 00:38:11;;;;;;;;;25.67;15.33;;;;;;;;6307980;22;45352;-77
2023/04/06 00:40:37;;;;;;;;;20.75;13.50;;;;;;;;6337410;22;45427;-76
2023/04/06 00:43:02;;;;;;;;;18.67;15.33;;;;;;;;6337199;22;46252;-77
2023/04/06 00:45:28;;;;;;;;;22.67;16.33;;;;;;;;6336565;22;45206;-76
2023/04/06 00:47:53;;;;;;;;;21.50;13.00;;;;;;;;6336292;22;45288;-76
2023/04/06 00:50:18;;;;;;;;;18.33;11.33;;;;;;;;6337096;22;45378;-77
2023/04/06 00:52:43;;;;;;;;;18.00;16.75;;;;;;;;6336409;22;46188;-76
2023/04/06 00:55:09;;;;;;;;;21.67;14.00;;;;;;;;6336949;22;45243;-77
2023/04/06 00:57:34;;;;;;;;;20.00;18.75;;;;;;;;6337027;22;45282;-76
2023/04/06 00:59:59;;;;;;;;;26.67;17.67;;;;;;;;6337232;22;45357;-77
2023/04/06 01:02:25;;;;;;;;;21.75;13.00;;;;;;;;6336386;22;46249;-76
2023/04/06 01:04:51;;;;;;;;;26.75;18.50;;;;;;;;6336507;22;45267;-77
2023/04/06 01:07:16;;;;;;;;;24.50;18.00;;;;;;;;6336591;22;45224;-76
2023/04/06 01:09:42;;;;;;;;;19.67;17.00;;;;;;;;6337212;22;45497;-77
2023/04/06 01:12:07;;;;;;;;;28.00;18.67;;;;;;;;6336491;22;46948;-76
2023/04/06 01:14:32;;;;;;;;;21.33;17.00;;;;;;;;6336626;22;45100;-77
2023/04/06 01:16:59;;;;;;;;;21.75;17.00;;;;;;;;6335737;22;45225;-76
2023/04/06 01:19:24;;;;;;;;;20.00;15.25;;;;;;;;6336533;22;45478;-76
2023/04/06 01:21:50;;;;;;;;;20.00;17.00;;;;;;;;6336846;22;45283;-77
2023/04/06 01:24:15;;;;;;;;;18.25;12.25;;;;;;;;6336530;22;45249;-76
2023/04/06 01:26:41;;;;;;;;;21.00;18.25;;;;;;;;6336346;22;45177;-76
2023/04/06 01:29:07;;;;;;;;;23.50;17.75;;;;;;;;6336688;22;45310;-76
2023/04/06 01:31:32;;;;;;;;;17.00;12.33;;;;;;;;6335910;22;46072;-76
2023/04/06 01:33:57;;;;;;;;;17.33;14.00;;;;;;;;6336752;22;45350;-77
2023/04/06 01:36:22;;;;;;;;;18.33;15.00;;;;;;;;6336750;22;45229;-76
2023/04/06 01:38:47;;;;;;;;;15.67;13.33;;;;;;;;6336265;22;45237;-76
2023/04/06 01:41:13;;;;;;;;;23.67;16.33;;;;;;;;6336672;22;45407;-77
2023/04/06 01:43:38;;;;;;;;;22.67;16.67;;;;;;;;6337027;22;45364;-76
2023/04/06 01:46:03;;;;;;;;;21.67;20.00;;;;;;;;6336258;22;45194;-77
2023/04/06 01:48:28;;;;;;;;;21.00;18.00;;;;;;;;6336233;22;45475;-76
2023/04/06 01:50:54;;;;;;;;;18.00;17.50;;;;;;;;6335878;22;47068;-76
2023/04/06 01:53:19;;;;;;;;;27.00;19.00;;;;;;;;6336098;22;45660;-76
2023/04/06 01:55:45;;;;;;;;;24.75;18.50;;;;;;;;6336511;22;45309;-76
2023/04/06 01:58:10;;;;;;;;;24.25;19.00;;;;;;;;6336830;22;45408;-76
2023/04/06 02:00:35;;;;;;;;;26.33;18.33;;;;;;;;6335796;22;46401;-76
2023/04/06 02:03:01;;;;;;;;;23.00;16.00;;;;;;;;6336643;22;45233;-76
2023/04/06 02:05:26;;;;;;;;;20.00;18.00;;;;;;;;6336757;22;45300;-77
2023/04/06 02:07:51;;;;;;;;;21.75;14.75;;;;;;;;6336291;22;45428;-76
2023/04/06 02:10:17;;;;;;;;;20.00;17.33;;;;;;;;6336731;22;45284;-76
2023/04/06 02:12:42;;;;;;;;;29.67;22.00;;;;;;;;6336481;22;45289;-76
2023/04/06 02:15:07;;;;;;;;;26.33;19.00;;;;;;;;6336092;22;45210;-76
2023/04/06 02:17:32;;;;;;;;;25.75;19.00;;;;;;;;6336693;22;45510;-76
2023/04/06 02:19:58;;;;;;;;;22.33;17.00;;;;;;;;6336442;22;45408;-76
2023/04/06 02:22:23;;;;;;;;;17.50;11.75;;;;;;;;6336662;22;45274;-76
2023/04/06 02:24:48;;;;;;;;;22.00;19.00;;;;;;;;6336701;22;45205;-76
2023/04/06 02:27:14;;;;;;;;;16.00;14.67;;;;;;;;6336664;22;45356;-76
2023/04/06 02:29:39;;;;;;;;;21.50;16.75;;;;;;;;6335469;22;47206;-76
2023/04/06 02:32:04;;;;;;;;;18.33;14.33;;;;;;;;6336631;22;45300;-76
2023/04/06 02:34:30;;;;;;;;;19.75;14.00;;;;;;;;6336313;22;45252;-76
2023/04/06 02:36:55;;;;;;;;;25.00;15.75;;;;;;;;6336516;22;45248;-76
2023/04/06 02:39:20;;;;;;;;;19.00;16.67;;;;;;;;6335907;22;45982;-76
2023/04/06 02:41:45;;;;;;;;;18.33;17.33;;;;;;;;6336331;22;45243;-77
2023/04/06 02:44:11;;;;;;;;;16.33;16.33;;;;;;;;6336292;22;45228;-76
2023/04/06 02:46:36;;;;;;;;;22.33;14.00;;;;;;;;6336489;22;45381;-76
2023/04/06 02:49:01;;;;;;;;;23.67;17.67;;;;;;;;6336462;22;45415;-76
2023/04/06 02:51:26;;;;;;;;;24.33;21.00;;;;;;;;6335713;22;45274;-75
2023/04/06 02:53:52;;;;;;;;;20.50;16.25;;;;;;;;6336467;22;45339;-76
2023/04/06 02:56:17;;;;;;;;;21.00;18.00;;;;;;;;6336087;22;45459;-76
2023/04/06 02:58:42;;;;;;;;;17.67;16.33;;;;;;;;6335411;22;45919;-76
2023/04/06 03:01:08;;;;;;;;;23.67;19.67;;;;;;;;6336102;22;45280;-76
2023/04/06 03:03:33;;;;;;;;;24.00;17.25;;;;;;;;6335996;22;45235;-76
2023/04/06 03:05:59;;;;;;;;;26.33;18.67;;;;;;;;6336648;22;45359;-76
2023/04/06 03:08:25;;;;;;;;;26.00;18.25;;;;;;;;6335760;22;46094;-76
2023/04/06 03:10:50;;;;;;;;;21.00;19.00;;;;;;;;6336453;22;45374;-75
2023/04/06 03:13:15;;;;;;;;;17.50;17.00;;;;;;;;6307654;22;45274;-76
2023/04/06 03:15:41;;;;;;;;;24.50;19.00;;;;;;;;6336566;22;45217;-76
2023/04/06 03:18:06;;;;;;;;;22.00;16.33;;;;;;;;6307866;22;47113;-76
2023/04/06 03:20:31;;;;;;;;;19.67;16.00;;;;;;;;6336048;22;45318;-76
2023/04/06 03:22:56;;;;;;;;;20.33;16.67;;;;;;;;6336615;22;45381;-76
2023/04/06 03:25:21;;;;;;;;;22.00;17.67;;;;;;;;6336431;22;45526;-75
2023/04/06 03:27:46;;;;;;;;;24.33;17.00;;;;;;;;6335858;22;46136;-76
2023/04/06 03:30:12;;;;;;;;;20.33;19.33;;;;;;;;6335818;22;45310;-76
2023/04/06 03:32:37;;;;;;;;;24.00;17.25;;;;;;;;6336492;22;45215;-77
2023/04/06 03:35:02;;;;;;;;;27.33;21.00;;;;;;;;6336530;22;45222;-76
2023/04/06 03:37:28;;;;;;;;;21.25;20.00;;;;;;;;6335572;22;45905;-77
2023/04/06 03:39:53;;;;;;;;;25.67;17.00;;;;;;;;6336272;22;45324;-77
2023/04/06 03:42:18;;;;;;;;;23.00;17.00;;;;;;;;6336122;22;45256;-76
2023/04/06 03:44:43;;;;;;;;;21.00;17.67;;;;;;;;6335843;22;45464;-76
2023/04/06 03:47:08;;;;;;;;;31.00;19.33;;;;;;;;6336230;22;46090;-77
2023/04/06 03:49:34;;;;;;;;;19.67;14.33;;;;;;;;6336235;22;45237;-76
2023/04/06 03:51:59;;;;;;;;;22.00;16.67;;;;;;;;6336369;22;45198;-76
2023/04/06 03:54:24;;;;;;;;;16.25;15.75;;;;;;;;6335874;22;45222;-76
2023/04/06 03:56:50;;;;;;;;;21.25;16.00;;;;;;;;6335125;22;46949;-76
2023/04/06 03:59:15;;;;;;;;;27.00;18.75;;;;;;;;6336150;22;45162;-76
2023/04/06 04:01:40;;;;;;;;;23.00;19.00;;;;;;;;6335906;22;45256;-76
2023/04/06 04:04:05;;;;;;;;;27.67;17.33;;;;;;;;6336162;22;45157;-77
2023/04/06 04:06:31;;;;;;;;;22.67;18.00;;;;;;;;6335613;22;45989;-77
2023/04/06 04:08:56;;;;;;;;;21.00;16.50;;;;;;;;6335779;22;45219;-76
2023/04/06 04:11:21;;;;;;;;;21.67;17.00;;;;;;;;6335486;22;45196;-76
2023/04/06 04:13:46;;;;;;;;;17.67;16.00;;;;;;;;6335974;22;45245;-76
2023/04/06 04:16:12;;;;;;;;;23.00;18.00;;;;;;;;6335480;22;47257;-77
2023/04/06 04:18:37;;;;;;;;;18.33;18.00;;;;;;;;6336133;22;45494;-77
2023/04/06 04:21:02;;;;;;;;;23.00;14.67;;;;;;;;6336329;22;45267;-77
2023/04/06 04:23:27;;;;;;;;;21.67;18.33;;;;;;;;6336121;22;45240;-76
2023/04/06 04:25:52;;;;;;;;;22.67;16.00;;;;;;;;6335464;22;45472;-77
2023/04/06 04:28:18;;;;;;;;;19.33;16.33;;;;;;;;6335889;22;45335;-77
2023/04/06 04:30:43;;;;;;;;;14.67;13.00;;;;;;;;6336199;22;45182;-77
2023/04/06 04:33:08;;;;;;;;;23.33;17.00;;;;;;;;6335490;22;45221;-76
2023/04/06 04:35:33;;;;;;;;;17.33;16.00;;;;;;;;6335747;22;45300;-76
2023/04/06 04:37:58;;;;;;;;;21.67;19.67;;;;;;;;6335944;22;45343;-77
2023/04/06 04:40:24;;;;;;;;;16.67;13.00;;;;;;;;6335852;22;45446;-77
2023/04/06 04:42:50;;;;;;;;;22.25;18.00;;;;;;;;6336048;22;45414;-77
2023/04/06 04:45:16;;;;;;;;;21.75;17.00;;;;;;;;6335442;22;46879;-77
2023/04/06 04:47:41;;;;;;;;;18.00;16.33;;;;;;;;6335313;22;45357;-76
2023/04/06 04:50:06;;;;;;;;;26.67;21.67;;;;;;;;6335896;22;45468;-76
2023/04/06 04:52:31;;;;;;;;;22.00;18.50;;;;;;;;6335473;22;45471;-76
2023/04/06 04:54:57;;;;;;;;;23.00;18.00;;;;;;;;6334793;22;46986;-76
2023/04/06 04:57:22;;;;;;;;;23.33;17.67;;;;;;;;6335750;22;45359;-76
2023/04/06 04:59:49;;;;;;;;;22.33;16.00;;;;;;;;6335399;22;45262;-76
2023/04/06 05:02:14;;;;;;;;;18.25;16.25;;;;;;;;6335858;22;45456;-76
2023/04/06 05:04:39;;;;;;;;;16.50;12.00;;;;;;;;6335252;22;46050;-76
2023/04/06 05:07:09;;;;;;;;;16.33;14.00;;;;;;;;6335040;22;45292;-76
2023/04/06 05:09:34;;;;;;;;;21.00;13.00;;;;;;;;6335206;22;45347;-76
2023/04/06 05:12:00;;;;;;;;;18.25;16.00;;;;;;;;6335332;22;45357;-76
2023/04/06 05:14:25;;;;;;;;;19.50;16.75;;;;;;;;6334798;22;45923;-76
2023/04/06 05:16:51;;;;;;;;;17.00;13.75;;;;;;;;6335328;22;45383;-77
2023/04/06 05:19:16;;;;;;;;;16.33;12.67;;;;;;;;6335807;22;45374;-76
2023/04/06 05:21:41;;;;;;;;;16.50;13.00;;;;;;;;6335466;22;45423;-76
2023/04/06 05:24:06;;;;;;;;;16.33;14.33;;;;;;;;6334795;22;47124;-76
2023/04/06 05:26:32;;;;;;;;;16.33;13.00;;;;;;;;6336498;22;45280;-76
2023/04/06 05:28:57;;;;;;;;;13.75;12.00;;;;;;;;6337260;22;45685;-76
2023/04/06 05:31:22;;;;;;;;;21.00;15.33;;;;;;;;6336738;22;45272;-76
2023/04/06 05:33:47;;;;;;;;;19.00;16.00;;;;;;;;6336730;22;45312;-76
2023/04/06 05:36:13;;;;;;;;;15.00;12.00;;;;;;;;6336511;22;45338;-76
2023/04/06 05:38:38;;;;;;;;;17.00;13.67;;;;;;;;6336299;22;45151;-76
2023/04/06 05:41:03;;;;;;;;;13.25;12.00;;;;;;;;6336931;22;45141;-76
2023/04/06 05:43:28;;;;;;;;;18.33;15.00;;;;;;;;6336873;22;46149;-76
2023/04/06 05:45:54;;;;;;;;;15.33;12.67;;;;;;;;6337203;22;45165;-76
2023/04/06 05:48:19;;;;;;;;;16.67;12.00;;;;;;;;6337085;22;45158;-76
2023/04/06 05:50:48;;;;;;;;;17.50;14.25;;;;;;;;6336399;22;45358;-76
2023/04/06 05:53:13;;;;;;;;;18.75;13.00;;;;;;;;6336371;22;46210;-77
2023/04/06 05:55:38;;;;;;;;;13.33;13.33;;;;;;;;6336971;22;45288;-76
2023/04/06 05:58:03;;;;;;;;;16.00;12.67;;;;;;;;6336650;22;45278;-76
2023/04/06 06:00:28;;;;;;;;;16.00;12.00;;;;;;;;6335912;22;45476;-75
2023/04/06 06:02:54;;;;;;;;;9.33;9.33;;;;;;;;6335578;22;46730;-76
2023/04/06 06:05:19;;;;;;;;;17.00;16.50;;;;;;;;6335605;22;45234;-79
2023/04/06 06:07:44;;;;;;;;;22.00;14.67;;;;;;;;6335473;22;45430;-79
2023/04/06 06:10:10;;;;;;;;;17.67;13.67;;;;;;;;6336793;22;45403;-79
2023/04/06 06:12:35;;;;;;;;;28.75;15.25;;;;;;;;6336175;22;45481;-80
2023/04/06 06:15:00;;;;;;;;;23.33;15.00;;;;;;;;6336302;22;45214;-79
2023/04/06 06:17:25;;;;;;;;;20.33;13.67;;;;;;;;6335681;22;45341;-79
2023/04/06 06:19:51;;;;;;;;;19.00;16.00;;;;;;;;6335232;22;45546;-79
2023/04/06 06:22:16;;;;;;;;;21.67;15.00;;;;;;;;6335799;22;47161;-79
2023/04/06 06:24:41;;;;;;;;;17.67;16.00;;;;;;;;6336567;22;45280;-79
2023/04/06 06:27:07;;;;;;;;;18.67;15.67;;;;;;;;6308432;22;45373;-79
2023/04/06 06:29:32;;;;;;;;;18.00;15.75;;;;;;;;6336766;22;45402;-78
2023/04/06 06:31:58;;;;;;;;;16.00;13.00;;;;;;;;6336319;22;45403;-78
2023/04/06 06:34:23;;;;;;;;;20.00;17.67;;;;;;;;6336365;22;45339;-78
2023/04/06 06:36:48;;;;;;;;;22.33;16.00;;;;;;;;6335339;22;45452;-79
2023/04/06 06:39:13;;;;;;;;;22.33;17.33;;;;;;;;6336648;22;45252;-78
2023/04/06 06:41:38;;;;;;;;;19.00;12.33;;;;;;;;6336417;22;45387;-78
2023/04/06 06:44:04;;;;;;;;;25.67;17.00;;;;;;;;6336683;22;45362;-80
2023/04/06 06:46:29;;;;;;;;;16.67;13.33;;;;;;;;6336802;22;45305;-79
2023/04/06 06:48:54;;;;;;;;;14.75;14.75;;;;;;;;6335989;22;45412;-79
2023/04/06 06:51:19;;;;;;;;;20.33;13.67;;;;;;;;6335783;22;45711;-79
2023/04/06 06:53:45;;;;;;;;;24.33;16.67;;;;;;;;6335843;22;45371;-80
2023/04/06 06:56:10;;;;;;;;;18.25;15.00;;;;;;;;6335674;22;45314;-80
2023/04/06 06:58:35;;;;;;;;;19.50;14.50;;;;;;;;6336256;22;45222;-80
2023/04/06 07:01:01;;;;;;;;;20.00;13.00;;;;;;;;6336527;22;45262;-80
2023/04/06 07:03:26;;;;;;;;;19.33;15.00;;;;;;;;6336235;22;45388;-80
2023/04/06 07:05:54;;;;;;;;;17.50;16.00;;;;;;;;6335512;22;45202;-80
2023/04/06 07:08:23;;;;;;;;;12.00;9.75;;;;;;;;6336108;22;45449;-80
2023/04/06 07:10:50;;;;;;;;;21.00;16.00;;;;;;;;6335675;22;46214;-80
2023/04/06 07:13:21;;;;;;;;;18.00;13.75;;;;;;;;6335970;22;45280;-80
2023/04/06 07:15:46;;;;;;;;;19.00;15.50;;;;;;;;6336282;22;45356;-79
2023/04/06 07:18:11;;;;;;;;;18.00;16.33;;;;;;;;6336448;22;45596;-80
2023/04/06 07:20:37;;;;;;;;;22.67;16.00;;;;;;;;6336042;22;46166;-80
2023/04/06 07:23:02;;;;;;;;;22.67;17.33;;;;;;;;6335947;22;45340;-80
2023/04/06 07:25:28;;;;;;;;;24.50;18.75;;;;;;;;6336458;22;45309;-80
2023/04/06 07:27:53;;;;;;;;;27.50;24.75;;;;;;;;6335998;22;45408;-80
2023/04/06 07:30:18;;;;;;;;;22.33;17.67;;;;;;;;6335741;22;45219;-80
2023/04/06 07:32:45;;;;;;;;;23.75;17.50;;;;;;;;6335997;22;45278;-80
2023/04/06 07:35:10;;;;;;;;;21.75;17.00;;;;;;;;6335705;22;45332;-80
2023/04/06 07:37:35;;;;;;;;;21.67;18.00;;;;;;;;6335945;22;45507;-80
2023/04/06 07:40:00;;;;;;;;;23.00;22.00;;;;;;;;6307851;22;47385;-80
2023/04/06 07:42:26;;;;;;;;;21.33;15.33;;;;;;;;6335886;22;45399;-79
2023/04/06 07:44:51;;;;;;;;;27.00;18.00;;;;;;;;6336521;22;45374;-80
2023/04/06 07:47:16;;;;;;;;;24.00;19.67;;;;;;;;6335506;22;45414;-80
2023/04/06 07:49:41;;;;;;;;;22.00;18.33;;;;;;;;6335227;22;46238;-79
2023/04/06 07:52:07;;;;;;;;;23.00;17.00;;;;;;;;6336073;22;45191;-80
2023/04/06 07:54:32;;;;;;;;;20.67;16.67;;;;;;;;6335946;22;45244;-80
2023/04/06 07:56:57;;;;;;;;;23.33;17.67;;;;;;;;6336427;22;45458;-80
2023/04/06 07:59:22;;;;;;;;;23.33;21.00;;;;;;;;6336422;22;45477;-80
2023/04/06 08:01:47;;;;;;;;;30.00;21.00;;;;;;;;6336045;22;45341;-80
2023/04/06 08:04:12;;;;;;;;;24.00;20.00;;;;;;;;6336013;22;45258;-79
2023/04/06 08:06:38;;;;;;;;;24.00;18.00;;;;;;;;6336424;22;45230;-80
2023/04/06 08:09:03;;;;;;;;;26.67;18.00;;;;;;;;6336253;22;45373;-79
2023/04/06 08:11:28;;;;;;;;;25.67;16.00;;;;;;;;6336246;22;45391;-79
2023/04/06 08:13:55;;;;;;;;;20.00;16.25;;;;;;;;6336491;22;45713;-80
2023/04/06 08:16:20;;;;;;;;;19.00;16.75;;;;;;;;6336187;22;45328;-80
2023/04/06 08:18:45;;;;;;;;;23.67;16.00;;;;;;;;6335551;22;45496;-79
2023/04/06 08:21:11;;;;;;;;;20.00;15.67;;;;;;;;6336153;22;45221;-80
2023/04/06 08:23:36;;;;;;;;;21.33;16.00;;;;;;;;6336209;22;45261;-79
2023/04/06 08:26:01;;;;;;;;;24.00;18.67;;;;;;;;6336068;22;45227;-79
2023/04/06 08:28:26;;;;;;;;;19.33;17.33;;;;;;;;6335429;22;46414;-79
2023/04/06 08:30:52;;;;;;;;;23.00;20.00;;;;;;;;6335867;22;45262;-80
2023/04/06 08:33:17;;;;;;;;;20.33;17.00;;;;;;;;6335695;22;45279;-80
2023/04/06 08:35:42;;;;;;;;;21.67;17.00;;;;;;;;6334790;22;45308;-77
2023/04/06 08:38:07;;;;;;;;;20.33;16.00;;;;;;;;6334879;22;45851;-79
2023/04/06 08:40:39;;;;;;;;;20.00;17.25;;;;;;;;6332790;22;45211;-80
2023/04/06 08:43:11;;;;;;;;;20.50;16.75;;;;;;;;6331976;22;45792;-79
2023/04/06 08:45:36;;;;;;;;;23.00;18.00;;;;;;;;6333467;22;45370;-78
2023/04/06 08:48:02;;;;;;;;;20.25;17.75;;;;;;;;6333377;22;45850;-79
2023/04/06 08:50:29;;;;;;;;;26.75;18.50;;;;;;;;6334212;22;45499;-79
2023/04/06 08:52:55;;;;;;;;;23.00;18.50;;;;;;;;6334929;22;45388;-79
2023/04/06 08:55:22;;;;;;;;;20.50;19.50;;;;;;;;6334333;22;45293;-80
2023/04/06 08:57:47;;;;;;;;;22.00;16.00;;;;;;;;6334610;22;45490;-78
2023/04/06 09:00:13;;;;;;;;;20.00;16.75;;;;;;;;6335630;22;45282;-79
2023/04/06 09:02:40;;;;;;;;;18.00;15.25;;;;;;;;6335413;22;45171;-79
2023/04/06 09:05:07;;;;;;;;;21.25;17.75;;;;;;;;6307752;22;45286;-79
2023/04/06 09:07:32;;;;;;;;;28.50;19.00;;;;;;;;6335221;22;46555;-80
2023/04/06 09:09:57;;;;;;;;;31.67;22.33;;;;;;;;6335720;22;45890;-79
2023/04/06 09:12:30;;;;;;;;;30.33;21.67;;;;;;;;6335851;22;45199;-80
2023/04/06 09:14:55;;;;;;;;;22.50;19.25;;;;;;;;6335339;22;45347;-80
2023/04/06 09:17:25;;;;;;;;;24.00;16.75;;;;;;;;6335156;22;46176;-79
2023/04/06 09:19:50;;;;;;;;;25.50;16.50;;;;;;;;6336034;22;45826;-78
2023/04/06 09:22:15;;;;;;;;;21.25;18.00;;;;;;;;6335786;22;45270;-79
2023/04/06 09:24:41;;;;;;;;;12.75;11.25;;;;;;;;6335714;22;45413;-78
2023/04/06 09:27:06;;;;;;;;;24.67;17.00;;;;;;;;6335407;22;46941;-78
2023/04/06 09:29:31;;;;;;;;;16.67;16.67;;;;;;;;6335277;22;45312;-81
2023/04/06 09:32:04;;;;;;;;;16.00;11.75;;;;;;;;6335292;22;45322;-80
2023/04/06 09:34:29;;;;;;;;;17.25;15.25;;;;;;;;6335686;22;45367;-79
2023/04/06 09:36:55;;;;;;;;;18.50;12.25;;;;;;;;6335640;22;45557;-78
2023/04/06 09:39:22;;;;;;;;;13.50;8.00;;;;;;;;6335253;22;45764;-80
2023/04/06 09:41:50;;;;;;;;;15.50;13.00;;;;;;;;6336110;22;45354;-79
2023/04/06 09:44:15;;;;;;;;;16.50;13.00;;;;;;;;6336316;22;45463;-80
2023/04/06 09:46:41;;;;;;;;;16.33;13.00;;;;;;;;6334982;22;45219;-80
2023/04/06 09:49:07;;;;;;;;;10.25;10.25;;;;;;;;6335358;22;45890;-80
2023/04/06 09:51:41;;;;;;;;;10.75;7.25;;;;;;;;6335437;22;45308;-79
2023/04/06 09:54:07;;;;;;;;;17.25;12.25;;;;;;;;6335241;22;45419;-79
2023/04/06 09:56:51;;;;;;;;;10.50;8.25;;;;;;;;6335073;22;46247;-80
2023/04/06 09:59:35;;;;;;;;;16.75;11.00;;;;;;;;6334785;22;45228;-80
2023/04/06 10:02:00;;;;;;;;;12.75;10.50;;;;;;;;6335751;22;45288;-80
2023/04/06 10:04:43;;;;;;;;;17.25;9.75;;;;;;;;6335401;22;45407;-80
2023/04/06 10:07:10;;;;;;;;;10.00;9.25;;;;;;;;6335142;22;45509;-80
2023/04/06 10:09:37;;;;;;;;;11.50;8.75;;;;;;;;6335810;22;45840;-78
2023/04/06 10:12:03;;;;;;;;;8.75;7.50;;;;;;;;6335622;22;45142;-79
2023/04/06 10:14:30;;;;;;;;;8.00;7.75;;;;;;;;6335211;22;45381;-79
2023/04/06 10:16:55;;;;;;;;;8.75;8.00;;;;;;;;6307523;22;48156;-80
2023/04/06 10:19:24;;;;;;;;;9.00;6.75;;;;;;;;6335402;22;45421;-80
2023/04/06 10:21:51;;;;;;;;;11.50;7.25;;;;;;;;6335626;22;45360;-80
2023/04/06 10:24:17;;;;;;;;;12.25;7.75;;;;;;;;6335897;22;45452;-80
2023/04/06 10:26:42;;;;;;;;;8.50;7.00;;;;;;;;6335884;22;45382;-81
2023/04/06 10:29:07;;;;;;;;;15.25;8.75;;;;;;;;6307467;22;45261;-80
2023/04/06 10:31:32;;;;;;;;;8.00;7.75;;;;;;;;6335679;22;45257;-80
2023/04/06 10:33:59;;;;;;;;;11.00;8.67;;;;;;;;6335349;22;45387;-79
2023/04/06 10:36:28;;;;;;;;;11.75;8.00;;;;;;;;6334911;22;46386;-79
2023/04/06 10:38:55;;;;;;;;;7.50;6.25;;;;;;;;6335757;22;45718;-80
2023/04/06 10:41:20;;;;;;;;;7.00;6.00;;;;;;;;6334857;22;45214;-78
2023/04/06 10:43:54;;;;;;;;;13.33;7.33;;;;;;;;6334912;22;45266;-80
2023/04/06 10:46:24;;;;;;;;;11.00;8.00;;;;;;;;6335371;22;46370;-79
2023/04/06 10:48:50;;;;;;;;;8.00;6.00;;;;;;;;6335345;22;45295;-79
2023/04/06 10:51:18;;;;;;;;;11.50;6.75;;;;;;;;6335850;22;45319;-79
2023/04/06 10:53:45;;;;;;;;;3.75;3.00;;;;;;;;6335526;22;45507;-78
2023/04/06 10:56:14;;;;;;;;;6.00;6.00;;;;;;;;6334953;22;46849;-79
2023/04/06 10:58:46;;;;;;;;;7.50;6.00;;;;;;;;6335458;22;45790;-79
2023/04/06 11:01:11;;;;;;;;;7.25;7.25;;;;;;;;6335574;22;45463;-80
2023/04/06 11:03:44;;;;;;;;;7.00;7.00;;;;;;;;6335548;22;45413;-81
2023/04/06 11:06:09;;;;;;;;;9.00;7.00;;;;;;;;6335086;22;47301;-81
2023/04/06 11:08:36;;;;;;;;;7.50;6.00;;;;;;;;6335962;22;45137;-78
2023/04/06 11:11:09;;;;;;;;;9.00;6.00;;;;;;;;6335565;22;45264;-79
2023/04/06 11:13:38;;;;;;;;;7.75;7.25;;;;;;;;6334515;22;45450;-79
2023/04/06 11:16:04;;;;;;;;;5.25;5.25;;;;;;;;6335078;22;47518;-79
2023/04/06 11:18:29;;;;;;;;;8.00;7.00;;;;;;;;6335837;22;45661;-80
2023/04/06 11:20:54;;;;;;;;;9.00;4.50;;;;;;;;6335101;22;45536;-81
2023/04/06 11:23:24;;;;;;;;;13.00;5.00;;;;;;;;6334948;22;45331;-78
2023/04/06 11:25:50;;;;;;;;;7.00;3.75;;;;;;;;6335025;22;47365;-81
2023/04/06 11:28:15;;;;;;;;;4.50;3.00;;;;;;;;6333250;22;45816;-80
2023/04/06 11:30:40;;;;;;;;;4.33;3.00;;;;;;;;6335365;22;45195;-79
2023/04/06 11:33:05;;;;;;;;;4.33;3.00;;;;;;;;6335750;22;45340;-79
2023/04/06 11:35:32;;;;;;;;;4.67;3.00;;;;;;;;6334999;22;45295;-80
2023/04/06 11:37:57;;;;;;;;;4.00;4.00;;;;;;;;6334792;22;45227;-81
2023/04/06 11:40:24;;;;;;;;;5.00;4.00;;;;;;;;6335322;22;45169;-78
2023/04/06 11:42:53;;;;;;;;;3.00;3.00;;;;;;;;6335526;22;45252;-79
2023/04/06 11:45:19;;;;;;;;;5.75;3.00;;;;;;;;6335091;22;46887;-79
2023/04/06 11:47:44;;;;;;;;;4.00;3.00;;;;;;;;6335309;22;45531;-80
2023/04/06 11:50:10;;;;;;;;;3.75;2.75;;;;;;;;6335367;22;45264;-81
2023/04/06 11:52:36;;;;;;;;;3.50;2.00;;;;;;;;6335279;22;45387;-78
2023/04/06 11:55:10;;;;;;;;;2.00;2.00;;;;;;;;6334125;22;46135;-80
2023/04/06 11:57:35;;;;;;;;;1.75;1.75;;;;;;;;6335060;22;45714;-81
2023/04/06 12:00:00;;;;;;;;;3.00;1.00;;;;;;;;6335389;22;45265;-80
2023/04/06 12:02:26;;;;;;;;;7.00;2.33;;;;;;;;6335185;22;45317;-78
2023/04/06 12:04:51;;;;;;;;;4.67;4.00;;;;;;;;6334682;22;46539;-81
2023/04/06 12:07:16;;;;;;;;;3.33;3.00;;;;;;;;6335205;22;45308;-80
2023/04/06 12:09:42;;;;;;;;;2.00;2.00;;;;;;;;6335098;22;45250;-81
2023/04/06 12:12:07;;;;;;;;;3.75;2.25;;;;;;;;6334893;22;45156;-81
2023/04/06 12:14:33;;;;;;;;;4.00;2.00;;;;;;;;6335298;22;46194;-81
2023/04/06 12:16:58;;;;;;;;;4.00;3.00;;;;;;;;6334498;22;45312;-81
2023/04/06 12:19:25;;;;;;;;;3.50;2.25;;;;;;;;6335125;22;45229;-81
2023/04/06 12:21:51;;;;;;;;;2.00;2.00;;;;;;;;6334581;22;45365;-81
2023/04/06 12:24:16;;;;;;;;;1.00;1.00;;;;;;;;6332382;22;46994;-80
2023/04/06 12:26:42;;;;;;;;;3.00;2.00;;;;;;;;6334262;22;45354;-80
2023/04/06 12:29:07;;;;;;;;;4.00;3.75;;;;;;;;6335570;22;45399;-80
2023/04/06 12:31:34;;;;;;;;;4.00;1.00;;;;;;;;6334583;22;45326;-79
2023/04/06 12:34:01;;;;;;;;;6.00;3.00;;;;;;;;6335206;22;45393;-79
2023/04/06 12:36:27;;;;;;;;;2.00;2.00;;;;;;;;6336104;22;45610;-79
2023/04/06 12:38:52;;;;;;;;;3.00;2.50;;;;;;;;6335991;22;45238;-80
2023/04/06 12:41:18;;;;;;;;;3.00;1.00;;;;;;;;6336121;22;45262;-80
2023/04/06 12:43:43;;;;;;;;;2.00;1.00;;;;;;;;6335483;22;46343;-80
2023/04/06 12:46:09;;;;;;;;;1.00;1.00;;;;;;;;6335742;22;45347;-80
2023/04/06 12:48:36;;;;;;;;;3.00;0.50;;;;;;;;6336317;22;45283;-80
2023/04/06 12:51:02;;;;;;;;;3.00;1.00;;;;;;;;6336052;22;45353;-80
2023/04/06 12:53:27;;;;;;;;;2.00;1.75;;;;;;;;6335339;22;47204;-81
2023/04/06 12:55:56;;;;;;;;;2.50;1.25;;;;;;;;6335717;22;45390;-81
2023/04/06 12:58:22;;;;;;;;;3.00;1.75;;;;;;;;6336001;22;45293;-80
2023/04/06 13:00:47;;;;;;;;;3.00;2.00;;;;;;;;6336300;22;45378;-81
2023/04/06 13:03:13;;;;;;;;;2.75;1.75;;;;;;;;6335893;22;46114;-81
2023/04/06 13:05:45;;;;;;;;;1.67;1.67;;;;;;;;6335951;22;45450;-82
2023/04/06 13:08:10;;;;;;;;;2.00;1.00;;;;;;;;6335702;22;45466;-82
2023/04/06 13:10:35;;;;;;;;;3.00;1.00;;;;;;;;6336157;22;45273;-80
2023/04/06 13:13:00;;;;;;;;;0.00;0.00;;;;;;;;6335892;22;45604;-80
2023/04/06 13:15:26;;;;;;;;;2.00;1.00;;;;;;;;6335640;22;45498;-81
2023/04/06 13:17:51;;;;;;;;;0.00;0.00;;;;;;;;6336115;22;45357;-81
2023/04/06 13:20:16;;;;;;;;;1.00;1.00;;;;;;;;6336252;22;45311;-82
2023/04/06 13:22:41;;;;;;;;;1.25;0.25;;;;;;;;6335750;22;45296;-80
2023/04/06 13:25:07;;;;;;;;;2.00;0.33;;;;;;;;6336006;22;45501;-80
2023/04/06 13:27:34;;;;;;;;;1.75;0.50;;;;;;;;6334659;22;45515;-81
2023/04/06 13:29:59;;;;;;;;;1.00;1.00;;;;;;;;6334572;22;45403;-80
2023/04/06 13:32:24;;;;;;;;;1.00;1.00;;;;;;;;6335184;22;45257;-80
2023/04/06 13:34:49;;;;;;;;;2.67;1.00;;;;;;;;6335433;22;45347;-80
2023/04/06 13:37:15;;;;;;;;;1.00;1.00;;;;;;;;6334552;22;45362;-80
2023/04/06 13:39:40;;;;;;;;;2.00;1.00;;;;;;;;6334679;22;45407;-81
2023/04/06 13:42:06;;;;;;;;;1.00;1.00;;;;;;;;6335771;22;45482;-80
2023/04/06 13:44:31;;;;;;;;;4.25;1.00;;;;;;;;6335626;22;45370;-78
2023/04/06 13:46:57;;;;;;;;;2.00;0.75;;;;;;;;6335534;22;45513;-79
2023/04/06 13:49:23;;;;;;;;;1.00;0.75;;;;;;;;6336083;22;45396;-79
2023/04/06 13:51:48;;;;;;;;;1.00;1.00;;;;;;;;6332857;22;47623;-79
2023/04/06 13:54:13;;;;;;;;;2.00;1.00;;;;;;;;6336074;22;45217;-79
2023/04/06 13:56:38;;;;;;;;;0.00;0.00;;;;;;;;6334719;22;45323;-79
2023/04/06 13:59:04;;;;;;;;;0.00;0.00;;;;;;;;6336342;22;45328;-79
2023/04/06 14:01:29;;;;;;;;;2.00;0.00;;;;;;;;6335561;22;46242;-82
2023/04/06 14:03:54;;;;;;;;;0.00;0.00;;;;;;;;6334909;22;45305;-79
2023/04/06 14:06:19;;;;;;;;;1.00;0.00;;;;;;;;6334798;22;45268;-80
2023/04/06 14:08:45;;;;;;;;;0.00;0.00;;;;;;;;6335854;22;45486;-80
2023/04/06 14:11:14;;;;;;;;;0.00;0.00;;;;;;;;6335814;22;47058;-81
2023/04/06 14:13:40;;;;;;;;;0.00;0.00;;;;;;;;6335818;22;45243;-80
2023/04/06 14:16:06;;;;;;;;;2.00;0.00;;;;;;;;6336066;22;45254;-81